Logo AVAMET
Benvolgut visitant, si us plau, ingressa Recuperar contrasenya

Inforatge Massamagrell

Dades diàries. Acumulats / Últims 30 dies disponibles

Data Temperatura (°C) Humitat rel. (%) Pressió rel. (hPa) Vent (km/h) Precipitació
Mínima Mitjana Màxima Amplitud
tèrmica
Mínima Mitjana Màxima Mínima Mitjana Màxima Predom. Mitjana Ràfega
màxima
Total
(mm)
Índex-n
Mínima Mitjana Màxima Mínima Mitjana Màxima n
0 a 1
P0 max
mm 5'
Dades mensuals acumulades fins l'últim dia disponible
05/2019 8,5 13,6 19,1 17,9 17,8 22,1 33,1 24,6 27 70 94 1.003 1.016 1.026   8,3 55,6 25,8
Dades anuals acumulades fins l'últim dia disponible
2019 0,5 8,4 19,1 13,5 9,6 18,8 33,1 32,6 15 65 98 993 1.020 1.037   7,8 77,8 82,2
Últims 30 dies disponibles
24-05-2019 16,1     17,4     19,2 3,1 78 85 91 1.014 1.016 1.017 E 9,8 37,0 9,6
23-05-2019 13,8     19,3     23,4 9,6 55 74 90 1.015 1.018 1.020 SSE 8,0 29,6 0,0
22-05-2019 13,5     17,8     20,9 7,4 60 78 90 1.018 1.019 1.020 SSE 6,9 25,9 0,0
21-05-2019 15,1     17,4     21,2 6,1 63 77 89 1.015 1.017 1.019 SSE 7,4 31,5 7,4 0,27 1,10
20-05-2019 11,6     17,4     21,9 10,3 42 64 78 1.013 1.014 1.016 SSE 8,4 35,4 0,0
19-05-2019 12,1     17,3     24,8 12,7 27 61 81 1.010 1.011 1.014 SO 5,1 38,9 2,0 0,19 0,80
18-05-2019 11,9     16,3     19,9 8,0 48 62 77 1.009 1.010 1.013 S 5,3 25,9 0,8 0,20
17-05-2019 13,7     19,3     23,7 10,0 34 53 85 1.003 1.006 1.011 OSO 12,7 50,0 0,0
16-05-2019 16,3     18,2     21,3 5,0 58 74 83 1.006 1.012 1.017 ESE 8,6 40,7 0,0
15-05-2019 14,0     17,8     20,8 6,8 67 76 82 1.013 1.014 1.017 ESE 11,5 45,0 0,0
14-05-2019 11,5     18,2     22,7 11,2 45 70 88 1.015 1.019 1.023 SSE 7,5 32,2 0,0
13-05-2019 15,8     18,5     21,6 5,8 49 74 89 1.020 1.022 1.023 E 9,0 29,6 0,0
12-05-2019 13,2     18,1     21,8 8,6 41 68 86 1.021 1.024 1.026 S 6,0 35,4 0,0
11-05-2019 16,5     19,9     23,1 6,6 60 75 88 1.016 1.020 1.025 E 9,2 32,2 0,0
10-05-2019 19,0     25,4     33,1 14,1 29 53 76 1.011 1.013 1.015 SO 12,1 38,9 0,0
09-05-2019 19,1     23,1     30,1 11,0 28 49 76 1.011 1.013 1.014 SO 12,7 45,0 0,0
08-05-2019 15,1     21,8     28,3 13,2 38 63 94 1.010 1.012 1.016 OSO 13,2 55,6 0,0
07-05-2019 11,1     16,1     20,0 8,9 71 82 89 1.015 1.018 1.021 SSE 7,8 29,6 0,0
06-05-2019 9,3     14,4     17,8 8,5 53 75 87 1.018 1.020 1.021 SSE 7,3 29,6 0,0
05-05-2019 13,1     16,0     19,2 6,1 28 57 83 1.014 1.016 1.019 S 8,7 35,4 0,0
04-05-2019 8,5     14,7     19,8 11,3 43 69 90 1.012 1.014 1.015 SSO 6,0 33,9 0,0
03-05-2019 10,4     14,1     18,6 8,2 67 79 89 1.012 1.014 1.017 SSO 5,8 33,9 0,6
02-05-2019 13,8     16,4     19,4 5,6 64 83 93 1.015 1.016 1.018 SSE 5,4 24,1 3,0 0,20
01-05-2019 11,9     15,6     18,4 6,5 63 84 91 1.014 1.016 1.019 SSE 5,5 29,6 2,4 0,34 0,40
30-04-2019 11,2     15,6     19,7 8,5 68 83 91 1.017 1.018 1.020 SSE 7,5 31,5 0,0
29-04-2019 10,6     15,0     17,8 7,2 71 81 89 1.019 1.021 1.022 SSE 6,1 27,8 0,0
28-04-2019 10,3     15,2     19,6 9,3 54 75 85 1.021 1.024 1.026 SSE 7,5 32,2 0,0
27-04-2019 10,6     16,0     21,2 10,6 39 64 86 1.025 1.026 1.028 S 5,9 31,5 0,0
26-04-2019 10,2     16,4     22,1 11,9 33 54 75 1.019 1.022 1.026 S 8,3 38,9 0,0
25-04-2019 13,7     17,4     22,2 8,5 36 58 78 1.009 1.013 1.018 OSO 12,8 53,7 0,0
Últims 13 mesos disponibles
04/2019 7,4 10,9 14,3 15,1 15,5 19,7 30,1 22,7 46 67 95 1.000 1.014 1.026 SSO 10,3 70,9 43,2
03/2019 4,8 8,2 14,2 13,7 9,6 19,0 29,1 24,3 44 63 83 1.012 1.024 1.031 SSO 6,9 61,1 12,8
02/2019 1,4 5,6 10,8 11,1 13,2 17,5 25,2 23,8 33 67 80 995 1.026 1.035 SSO 6,9 77,8 0,0
01/2019 0,5 4,9 11,8 10,3 11,7 16,6 20,7 20,2 44 61 82 1.002 1.020 1.031 OSO 6,8 66,7 0,4
12/2018 3,9 7,6 12,9 12,2 14,3 18,3 24,2 20,3 51 72 86 1.009 1.026 1.031 OSO 5,7 61,1 8,4
11/2018 5,1 10,6 16,3 14,1 14,3 18,4 23,6 18,5 57 74 90 1.003 1.016 1.025 OSO 7,2 64,8 149,8
10/2018 7,4 13,9 18,2 17,8 14,2 21,7 27,2 19,8 42 74 90 1.001 1.015 1.027 SSE 6,0 66,7 227,0
09/2018 18,2 20,8 23,7 24,5 24,4 27,7 30,3 12,1 67 77 84 1.014 1.019 1.025 5,6 38,9 53,4
08/2018 19,8 22,9 27,2 26,2 26,3 29,5 32,4 12,6 57 71 79 1.014 1.019 1.023 7,6 59,6 4,2
Tots els anys disponibles
Temperatura (°C)
Humitat relativa (%)
Velocitat del vent i ràfega màxima (km/h)
Direcció del vent (°)
Pressió (hPa)
Precipitació (mm)
Nota sobre les dades: s'avisa a l'usuari de la provisionalitat i no oficialitat d'aquestes dades
Logo AVAMET blanc
Web allotjada a Sollutia
Llicència de Creative CommonsLa web d'AVAMET i els seus continguts estan subjectes a una llicència de
Reconeixement - No Comercial - Compartir igual
Properes estacions: Altea - Club Nàutic d'Altea (Soci), Ontinyent - El Pilar (Soci), Ares del Maestrat (Ajuntament Soci), Catadau - L'Altet (Inforatge)     - - - - -      Últimes estacions: Asp - Poliesportiu (Soci), Jacarilla - centro (MeteOrihuela), Elx - Maitino/Vallverda/Velarde/Matola/Ferriol (Soci TiempoElche.com), Orihuela - Playa Flamenca (MeteOrihuela), - - -